sensor_id;sensor_type;location;lat;lon;timestamp;pressure;altitude;pressure_sealevel;temperature;humidity
75409;BME280;63979;55.644;37.734;2023-05-09T00:03:38;101749.66;;;4.06;72.50
75409;BME280;63979;55.644;37.734;2023-05-09T00:08:39;101763.72;;;4.10;73.20
75409;BME280;63979;55.644;37.734;2023-05-09T00:13:40;101774.22;;;4.17;72.98
75409;BME280;63979;55.644;37.734;2023-05-09T00:18:43;101752.47;;;3.92;73.83
75409;BME280;63979;55.644;37.734;2023-05-09T00:23:45;101746.34;;;3.89;73.09
75409;BME280;63979;55.644;37.734;2023-05-09T00:28:47;101772.69;;;3.95;74.73
75409;BME280;63979;55.644;37.734;2023-05-09T00:33:47;101784.09;;;3.98;76.24
75409;BME280;63979;55.644;37.734;2023-05-09T00:38:48;101766.50;;;3.97;75.62
75409;BME280;63979;55.644;37.734;2023-05-09T00:43:49;101710.59;;;3.54;74.90
75409;BME280;63979;55.644;37.734;2023-05-09T00:48:50;101778.91;;;3.89;76.13
75409;BME280;63979;55.644;37.734;2023-05-09T00:53:51;101784.25;;;3.83;75.69
75409;BME280;63979;55.644;37.734;2023-05-09T00:58:53;101786.94;;;3.77;76.25
75409;BME280;63979;55.644;37.734;2023-05-09T01:03:55;101777.31;;;3.70;75.84
75409;BME280;63979;55.644;37.734;2023-05-09T01:19:53;101796.78;;;3.60;76.53
75409;BME280;63979;55.644;37.734;2023-05-09T01:30:15;101788.94;;;3.52;77.00
75409;BME280;63979;55.644;37.734;2023-05-09T01:35:17;101775.75;;;3.49;76.39
75409;BME280;63979;55.644;37.734;2023-05-09T01:40:22;101792.41;;;3.56;76.18
75409;BME280;63979;55.644;37.734;2023-05-09T01:45:26;101795.06;;;3.54;76.34
75409;BME280;63979;55.644;37.734;2023-05-09T01:50:28;101780.16;;;3.50;75.73
75409;BME280;63979;55.644;37.734;2023-05-09T01:55:31;101787.13;;;3.56;75.88
75409;BME280;63979;55.644;37.734;2023-05-09T02:00:34;101793.28;;;3.58;75.43
75409;BME280;63979;55.644;37.734;2023-05-09T02:05:36;101799.34;;;3.67;75.10
75409;BME280;63979;55.644;37.734;2023-05-09T02:10:38;101794.97;;;3.66;74.81
75409;BME280;63979;55.644;37.734;2023-05-09T02:15:41;101800.19;;;3.72;75.29
75409;BME280;63979;55.644;37.734;2023-05-09T02:20:43;101795.69;;;3.85;73.94
75409;BME280;63979;55.644;37.734;2023-05-09T02:25:45;101800.03;;;3.92;72.79
75409;BME280;63979;55.644;37.734;2023-05-09T02:30:46;101754.38;;;3.75;72.20
75409;BME280;63979;55.644;37.734;2023-05-09T02:35:49;101803.31;;;4.13;70.70
75409;BME280;63979;55.644;37.734;2023-05-09T02:40:52;101800.47;;;4.32;71.73
75409;BME280;63979;55.644;37.734;2023-05-09T02:45:53;101796.84;;;4.43;70.98
75409;BME280;63979;55.644;37.734;2023-05-09T02:50:54;101793.22;;;4.50;71.39
75409;BME280;63979;55.644;37.734;2023-05-09T02:55:56;101759.75;;;4.49;70.39
75409;BME280;63979;55.644;37.734;2023-05-09T03:00:58;101788.38;;;4.84;68.94
75409;BME280;63979;55.644;37.734;2023-05-09T03:05:58;101800.38;;;5.09;66.68
75409;BME280;63979;55.644;37.734;2023-05-09T03:10:59;101808.16;;;5.23;67.21
75409;BME280;63979;55.644;37.734;2023-05-09T03:16:00;101812.25;;;5.42;67.18
75409;BME280;63979;55.644;37.734;2023-05-09T03:21:01;101797.03;;;5.55;65.63
75409;BME280;63979;55.644;37.734;2023-05-09T03:26:02;101809.00;;;5.80;64.16
75409;BME280;63979;55.644;37.734;2023-05-09T03:31:03;101815.75;;;6.01;63.97
75409;BME280;63979;55.644;37.734;2023-05-09T03:36:05;101819.75;;;6.22;63.04
75409;BME280;63979;55.644;37.734;2023-05-09T03:41:06;101802.53;;;6.44;62.30
75409;BME280;63979;55.644;37.734;2023-05-09T03:46:07;101820.31;;;6.84;60.08
75409;BME280;63979;55.644;37.734;2023-05-09T03:51:08;101815.06;;;7.21;58.18
75409;BME280;63979;55.644;37.734;2023-05-09T03:56:09;101811.44;;;7.62;54.25
75409;BME280;63979;55.644;37.734;2023-05-09T04:01:10;101823.44;;;8.14;52.79
75409;BME280;63979;55.644;37.734;2023-05-09T04:06:11;101827.53;;;8.60;51.32
75409;BME280;63979;55.644;37.734;2023-05-09T04:11:12;101782.75;;;8.74;50.46
75409;BME280;63979;55.644;37.734;2023-05-09T04:16:12;101814.81;;;9.28;47.55
75409;BME280;63979;55.644;37.734;2023-05-09T04:21:13;101823.59;;;9.60;45.73
75409;BME280;63979;55.644;37.734;2023-05-09T04:26:15;101808.59;;;9.84;45.70
75409;BME280;63979;55.644;37.734;2023-05-09T04:31:17;101765.22;;;9.79;43.85
75409;BME280;63979;55.644;37.734;2023-05-09T04:36:19;101765.00;;;10.10;43.62
75409;BME280;63979;55.644;37.734;2023-05-09T04:41:20;101832.97;;;10.76;43.04
75409;BME280;63979;55.644;37.734;2023-05-09T04:46:22;101832.38;;;11.14;42.03
75409;BME280;63979;55.644;37.734;2023-05-09T04:51:23;101789.31;;;11.22;40.86
75409;BME280;63979;55.644;37.734;2023-05-09T04:56:24;101821.13;;;11.72;39.38
75409;BME280;63979;55.644;37.734;2023-05-09T05:01:25;101822.94;;;12.35;38.40
75409;BME280;63979;55.644;37.734;2023-05-09T05:06:26;101828.22;;;13.15;35.71
75409;BME280;63979;55.644;37.734;2023-05-09T05:11:27;101823.38;;;13.61;34.02
75409;BME280;63979;55.644;37.734;2023-05-09T05:16:28;101787.75;;;13.93;33.34
75409;BME280;63979;55.644;37.734;2023-05-09T05:21:30;101814.03;;;14.39;31.73
75409;BME280;63979;55.644;37.734;2023-05-09T05:26:31;101792.06;;;14.65;30.37
75409;BME280;63979;55.644;37.734;2023-05-09T05:31:32;101818.28;;;15.73;27.59
75409;BME280;63979;55.644;37.734;2023-05-09T05:36:33;101814.66;;;18.67;24.08
75409;BME280;63979;55.644;37.734;2023-05-09T05:41:34;101823.47;;;20.74;21.20
75409;BME280;63979;55.644;37.734;2023-05-09T05:46:35;101813.00;;;22.44;19.44
75409;BME280;63979;55.644;37.734;2023-05-09T05:51:36;101830.00;;;23.99;16.14
75409;BME280;63979;55.644;37.734;2023-05-09T05:56:37;101826.97;;;24.40;17.60
75409;BME280;63979;55.644;37.734;2023-05-09T06:01:38;101822.78;;;22.26;18.55
75409;BME280;63979;55.644;37.734;2023-05-09T06:06:40;101808.94;;;20.75;18.35
75409;BME280;63979;55.644;37.734;2023-05-09T06:11:44;101784.72;;;21.39;19.75
75409;BME280;63979;55.644;37.734;2023-05-09T06:16:45;101783.44;;;18.99;20.35
75409;BME280;63979;55.644;37.734;2023-05-09T06:21:46;101819.94;;;18.56;20.76
75409;BME280;63979;55.644;37.734;2023-05-09T06:26:46;101730.78;;;18.67;20.12
75409;BME280;63979;55.644;37.734;2023-05-09T06:31:50;101802.50;;;17.95;21.93
75409;BME280;63979;55.644;37.734;2023-05-09T06:36:51;101790.53;;;17.04;23.91
75409;BME280;63979;55.644;37.734;2023-05-09T06:41:52;101765.09;;;19.52;20.50
75409;BME280;63979;55.644;37.734;2023-05-09T06:46:52;101793.22;;;24.41;15.30
75409;BME280;63979;55.644;37.734;2023-05-09T06:51:53;101804.28;;;24.01;14.65
75409;BME280;63979;55.644;37.734;2023-05-09T06:56:54;101788.06;;;21.86;17.70
75409;BME280;63979;55.644;37.734;2023-05-09T07:01:56;101784.34;;;20.08;19.49
75409;BME280;63979;55.644;37.734;2023-05-09T07:06:57;101784.66;;;18.95;20.89
75409;BME280;63979;55.644;37.734;2023-05-09T07:11:59;101777.16;;;18.35;21.08
75409;BME280;63979;55.644;37.734;2023-05-09T07:17:01;101753.41;;;20.79;18.71
75409;BME280;63979;55.644;37.734;2023-05-09T07:22:02;101763.47;;;26.03;13.35
75409;BME280;63979;55.644;37.734;2023-05-09T07:27:03;101774.09;;;29.91;11.78
75409;BME280;63979;55.644;37.734;2023-05-09T07:32:04;101781.88;;;32.58;10.05
75409;BME280;63979;55.644;37.734;2023-05-09T07:37:05;101775.63;;;32.43;8.72
75409;BME280;63979;55.644;37.734;2023-05-09T07:42:06;101777.38;;;32.78;9.12
75409;BME280;63979;55.644;37.734;2023-05-09T07:47:08;101770.34;;;31.62;9.37
75409;BME280;63979;55.644;37.734;2023-05-09T07:52:09;101751.41;;;33.21;8.85
75409;BME280;63979;55.644;37.734;2023-05-09T07:57:10;101754.94;;;33.49;8.05
75409;BME280;63979;55.644;37.734;2023-05-09T08:02:11;101753.38;;;32.85;9.67
75409;BME280;63979;55.644;37.734;2023-05-09T08:07:12;101754.00;;;34.03;8.55
75409;BME280;63979;55.644;37.734;2023-05-09T08:12:14;101753.28;;;33.68;8.35
75409;BME280;63979;55.644;37.734;2023-05-09T08:17:15;101735.50;;;31.11;9.89
75409;BME280;63979;55.644;37.734;2023-05-09T08:22:17;101707.97;;;29.54;10.20
75409;BME280;63979;55.644;37.734;2023-05-09T08:27:19;101719.25;;;28.33;11.39
75409;BME280;63979;55.644;37.734;2023-05-09T08:32:20;101721.78;;;27.45;11.39
75409;BME280;63979;55.644;37.734;2023-05-09T08:37:21;101675.22;;;26.09;12.33
75409;BME280;63979;55.644;37.734;2023-05-09T08:42:22;101704.47;;;24.65;13.60
75409;BME280;63979;55.644;37.734;2023-05-09T08:47:26;101701.78;;;23.60;13.65
75409;BME280;63979;55.644;37.734;2023-05-09T08:52:30;101686.72;;;22.05;15.16
75409;BME280;63979;55.644;37.734;2023-05-09T08:57:32;101693.44;;;21.69;15.48
75409;BME280;63979;55.644;37.734;2023-05-09T09:02:39;101638.44;;;20.69;16.64
75409;BME280;63979;55.644;37.734;2023-05-09T09:07:41;101682.94;;;21.43;16.02
75409;BME280;63979;55.644;37.734;2023-05-09T09:12:43;101680.03;;;23.20;14.01
75409;BME280;63979;55.644;37.734;2023-05-09T09:17:47;101673.38;;;25.56;12.86
75409;BME280;63979;55.644;37.734;2023-05-09T09:22:51;101666.94;;;26.53;11.58
75409;BME280;63979;55.644;37.734;2023-05-09T09:27:55;101652.53;;;25.02;13.16
75409;BME280;63979;55.644;37.734;2023-05-09T09:32:59;101654.69;;;23.68;14.10
75409;BME280;63979;55.644;37.734;2023-05-09T09:38:00;101655.72;;;22.88;14.24
75409;BME280;63979;55.644;37.734;2023-05-09T09:43:05;101650.50;;;23.44;14.47
75409;BME280;63979;55.644;37.734;2023-05-09T09:48:09;101645.19;;;23.04;14.36
75409;BME280;63979;55.644;37.734;2023-05-09T09:53:10;101652.09;;;23.56;14.10
75409;BME280;63979;55.644;37.734;2023-05-09T09:58:19;101640.25;;;24.51;12.74
75409;BME280;63979;55.644;37.734;2023-05-09T10:03:34;101636.34;;;25.79;11.80
75409;BME280;63979;55.644;37.734;2023-05-09T10:08:35;101570.53;;;27.32;10.67
75409;BME280;63979;55.644;37.734;2023-05-09T10:13:36;101634.41;;;31.67;9.98
75409;BME280;63979;55.644;37.734;2023-05-09T10:18:38;101638.13;;;30.07;9.83
75409;BME280;63979;55.644;37.734;2023-05-09T10:23:44;101626.97;;;27.83;9.78
75409;BME280;63979;55.644;37.734;2023-05-09T10:28:47;101625.88;;;26.61;10.91
75409;BME280;63979;55.644;37.734;2023-05-09T10:33:50;101619.31;;;25.50;12.27
75409;BME280;63979;55.644;37.734;2023-05-09T10:38:54;101626.66;;;25.32;11.85
75409;BME280;63979;55.644;37.734;2023-05-09T10:43:57;101607.97;;;28.84;10.66
75409;BME280;63979;55.644;37.734;2023-05-09T10:48:58;101614.34;;;33.91;7.87
75409;BME280;63979;55.644;37.734;2023-05-09T10:53:59;101578.63;;;35.98;6.33
75409;BME280;63979;55.644;37.734;2023-05-09T10:59:00;101604.84;;;34.96;6.29
75409;BME280;63979;55.644;37.734;2023-05-09T11:04:12;101560.13;;;32.07;7.71
75409;BME280;63979;55.644;37.734;2023-05-09T11:14:37;101563.88;;;28.22;10.62
75409;BME280;63979;55.644;37.734;2023-05-09T11:24:48;101555.03;;;34.12;7.58
75409;BME280;63979;55.644;37.734;2023-05-09T11:29:53;101567.44;;;36.60;6.57
75409;BME280;63979;55.644;37.734;2023-05-09T11:35:15;101537.63;;;37.62;4.73
75409;BME280;63979;55.644;37.734;2023-05-09T11:40:19;101552.13;;;38.11;5.29
75409;BME280;63979;55.644;37.734;2023-05-09T11:45:23;101560.88;;;39.40;5.50
75409;BME280;63979;55.644;37.734;2023-05-09T11:50:24;101556.50;;;39.94;4.37
75409;BME280;63979;55.644;37.734;2023-05-09T11:55:25;101543.91;;;38.04;4.51
75409;BME280;63979;55.644;37.734;2023-05-09T12:00:29;101529.03;;;33.93;7.09
75409;BME280;63979;55.644;37.734;2023-05-09T12:05:31;101518.56;;;28.26;9.98
75409;BME280;63979;55.644;37.734;2023-05-09T12:10:36;101481.41;;;24.38;12.36
75409;BME280;63979;55.644;37.734;2023-05-09T12:15:38;101515.94;;;23.92;12.65
75409;BME280;63979;55.644;37.734;2023-05-09T12:20:48;101500.53;;;23.54;12.48
75409;BME280;63979;55.644;37.734;2023-05-09T12:26:01;101495.59;;;23.30;12.99
75409;BME280;63979;55.644;37.734;2023-05-09T12:31:02;101483.09;;;21.91;15.28
75409;BME280;63979;55.644;37.734;2023-05-09T12:41:08;101480.97;;;21.01;14.33
75409;BME280;63979;55.644;37.734;2023-05-09T12:46:09;101473.53;;;20.62;14.64
75409;BME280;63979;55.644;37.734;2023-05-09T12:51:11;101460.31;;;20.03;15.08
75409;BME280;63979;55.644;37.734;2023-05-09T12:56:16;101459.25;;;19.72;15.81
75409;BME280;63979;55.644;37.734;2023-05-09T13:01:27;101454.19;;;20.44;15.11
75409;BME280;63979;55.644;37.734;2023-05-09T13:06:28;101393.28;;;20.69;14.77
75409;BME280;63979;55.644;37.734;2023-05-09T13:11:30;101394.28;;;20.47;15.92
75409;BME280;63979;55.644;37.734;2023-05-09T13:16:31;101423.19;;;20.90;15.47
75409;BME280;63979;55.644;37.734;2023-05-09T13:21:32;101421.25;;;21.01;15.04
75409;BME280;63979;55.644;37.734;2023-05-09T13:26:33;101420.44;;;20.48;15.62
75409;BME280;63979;55.644;37.734;2023-05-09T13:31:34;101415.56;;;20.83;15.16
75409;BME280;63979;55.644;37.734;2023-05-09T13:36:35;101407.63;;;20.92;15.46
75409;BME280;63979;55.644;37.734;2023-05-09T13:41:36;101398.66;;;21.01;15.12
75409;BME280;63979;55.644;37.734;2023-05-09T13:46:37;101401.56;;;20.67;15.77
75409;BME280;63979;55.644;37.734;2023-05-09T13:51:38;101393.34;;;20.25;16.44
75409;BME280;63979;55.644;37.734;2023-05-09T13:56:39;101387.13;;;20.03;15.76
75409;BME280;63979;55.644;37.734;2023-05-09T14:01:40;101382.91;;;19.55;16.94
75409;BME280;63979;55.644;37.734;2023-05-09T14:06:40;101369.81;;;19.38;16.06
75409;BME280;63979;55.644;37.734;2023-05-09T14:11:48;101338.94;;;18.96;16.44
75409;BME280;63979;55.644;37.734;2023-05-09T14:16:51;101378.28;;;18.78;17.22
75409;BME280;63979;55.644;37.734;2023-05-09T14:21:53;101360.22;;;18.89;16.58
75409;BME280;63979;55.644;37.734;2023-05-09T14:26:54;101369.44;;;18.98;17.65
75409;BME280;63979;55.644;37.734;2023-05-09T14:31:55;101365.94;;;18.38;17.92
75409;BME280;63979;55.644;37.734;2023-05-09T14:36:56;101355.63;;;18.08;17.69
75409;BME280;63979;55.644;37.734;2023-05-09T14:41:57;101350.03;;;17.99;18.24
75409;BME280;63979;55.644;37.734;2023-05-09T14:46:59;101347.09;;;18.02;17.69
75409;BME280;63979;55.644;37.734;2023-05-09T14:52:00;101357.91;;;18.02;18.45
75409;BME280;63979;55.644;37.734;2023-05-09T14:57:02;101356.69;;;17.33;18.53
75409;BME280;63979;55.644;37.734;2023-05-09T15:02:05;101351.53;;;17.66;18.40
75409;BME280;63979;55.644;37.734;2023-05-09T15:07:06;101357.44;;;17.48;18.25
75409;BME280;63979;55.644;37.734;2023-05-09T15:12:08;101347.28;;;17.51;18.76
75409;BME280;63979;55.644;37.734;2023-05-09T15:17:10;101346.00;;;17.44;19.23
75409;BME280;63979;55.644;37.734;2023-05-09T15:22:11;101338.34;;;17.38;18.65
75409;BME280;63979;55.644;37.734;2023-05-09T15:27:12;101333.09;;;17.11;18.85
75409;BME280;63979;55.644;37.734;2023-05-09T15:32:14;101273.38;;;16.66;19.27
75409;BME280;63979;55.644;37.734;2023-05-09T15:37:15;101321.38;;;16.74;19.46
75409;BME280;63979;55.644;37.734;2023-05-09T15:42:16;101316.25;;;16.44;19.40
75409;BME280;63979;55.644;37.734;2023-05-09T15:47:19;101307.13;;;16.19;20.51
75409;BME280;63979;55.644;37.734;2023-05-09T15:52:20;101313.91;;;16.12;20.41
75409;BME280;63979;55.644;37.734;2023-05-09T15:57:21;101306.41;;;15.90;20.39
75409;BME280;63979;55.644;37.734;2023-05-09T16:02:23;101308.53;;;15.85;20.08
75409;BME280;63979;55.644;37.734;2023-05-09T16:07:25;101310.88;;;15.77;20.09
75409;BME280;63979;55.644;37.734;2023-05-09T16:12:26;101267.44;;;15.42;20.27
75409;BME280;63979;55.644;37.734;2023-05-09T16:17:28;101293.81;;;15.50;20.71
75409;BME280;63979;55.644;37.734;2023-05-09T16:22:31;101283.56;;;15.42;20.77
75409;BME280;63979;55.644;37.734;2023-05-09T16:27:32;101293.94;;;15.48;20.24
75409;BME280;63979;55.644;37.734;2023-05-09T16:32:33;101298.84;;;15.42;20.49
75409;BME280;63979;55.644;37.734;2023-05-09T16:37:34;101287.06;;;15.30;20.49
75409;BME280;63979;55.644;37.734;2023-05-09T16:42:35;101277.97;;;15.04;22.13
75409;BME280;63979;55.644;37.734;2023-05-09T16:47:38;101288.34;;;14.82;22.53
75409;BME280;63979;55.644;37.734;2023-05-09T16:52:39;101276.38;;;14.59;22.33
75409;BME280;63979;55.644;37.734;2023-05-09T16:57:40;101285.16;;;14.47;22.47
75409;BME280;63979;55.644;37.734;2023-05-09T17:02:41;101273.56;;;14.16;22.74
75409;BME280;63979;55.644;37.734;2023-05-09T17:07:42;101276.53;;;14.12;24.11
75409;BME280;63979;55.644;37.734;2023-05-09T17:12:43;101280.13;;;13.96;24.05
75409;BME280;63979;55.644;37.734;2023-05-09T17:17:44;101295.84;;;13.88;24.48
75409;BME280;63979;55.644;37.734;2023-05-09T17:22:47;101300.84;;;13.79;24.90
75409;BME280;63979;55.644;37.734;2023-05-09T17:27:47;101308.94;;;13.63;24.49
75409;BME280;63979;55.644;37.734;2023-05-09T17:32:49;101306.06;;;13.50;25.21
75409;BME280;63979;55.644;37.734;2023-05-09T17:37:50;101260.69;;;13.14;24.84
75409;BME280;63979;55.644;37.734;2023-05-09T17:42:51;101288.09;;;13.21;24.87
75409;BME280;63979;55.644;37.734;2023-05-09T17:47:52;101240.34;;;12.78;25.73
75409;BME280;63979;55.644;37.734;2023-05-09T17:52:53;101308.34;;;13.09;27.22
75409;BME280;63979;55.644;37.734;2023-05-09T17:57:54;101295.72;;;12.95;26.82
75409;BME280;63979;55.644;37.734;2023-05-09T18:02:59;101303.88;;;12.76;28.44
75409;BME280;63979;55.644;37.734;2023-05-09T18:08:00;101259.19;;;12.44;29.61
75409;BME280;63979;55.644;37.734;2023-05-09T18:13:02;101300.88;;;12.82;29.86
75409;BME280;63979;55.644;37.734;2023-05-09T18:18:04;101298.53;;;12.76;27.99
75409;BME280;63979;55.644;37.734;2023-05-09T18:23:08;101291.25;;;12.78;27.27
75409;BME280;63979;55.644;37.734;2023-05-09T18:28:09;101279.41;;;12.67;27.48
75409;BME280;63979;55.644;37.734;2023-05-09T18:33:10;101289.34;;;12.65;26.91
75409;BME280;63979;55.644;37.734;2023-05-09T18:38:11;101281.13;;;12.68;26.94
75409;BME280;63979;55.644;37.734;2023-05-09T18:43:13;101302.25;;;12.74;28.92
75409;BME280;63979;55.644;37.734;2023-05-09T18:48:16;101305.34;;;12.66;31.40
75409;BME280;63979;55.644;37.734;2023-05-09T18:53:18;101303.56;;;12.49;30.36
75409;BME280;63979;55.644;37.734;2023-05-09T18:58:18;101294.59;;;12.33;29.29
75409;BME280;63979;55.644;37.734;2023-05-09T19:03:21;101308.06;;;12.32;28.94
75409;BME280;63979;55.644;37.734;2023-05-09T19:08:24;101305.69;;;12.26;30.19
75409;BME280;63979;55.644;37.734;2023-05-09T19:13:26;101299.72;;;12.21;28.82
75409;BME280;63979;55.644;37.734;2023-05-09T19:18:27;101277.72;;;12.14;28.07
75409;BME280;63979;55.644;37.734;2023-05-09T19:23:28;101301.22;;;12.26;28.06
75409;BME280;63979;55.644;37.734;2023-05-09T19:28:29;101279.06;;;12.05;28.78
75409;BME280;63979;55.644;37.734;2023-05-09T19:33:32;101241.47;;;11.91;29.00
75409;BME280;63979;55.644;37.734;2023-05-09T19:38:33;101301.44;;;12.22;29.25
75409;BME280;63979;55.644;37.734;2023-05-09T19:43:34;101295.31;;;12.20;29.40
75409;BME280;63979;55.644;37.734;2023-05-09T19:48:35;101293.09;;;12.10;29.61
75409;BME280;63979;55.644;37.734;2023-05-09T19:53:37;101288.06;;;12.04;31.86
75409;BME280;63979;55.644;37.734;2023-05-09T19:58:38;101281.75;;;12.05;30.92
75409;BME280;63979;55.644;37.734;2023-05-09T20:03:39;101294.69;;;12.14;32.12
75409;BME280;63979;55.644;37.734;2023-05-09T20:08:42;101234.50;;;11.70;31.25
75409;BME280;63979;55.644;37.734;2023-05-09T20:13:46;101293.31;;;12.06;31.66
75409;BME280;63979;55.644;37.734;2023-05-09T20:18:47;101288.91;;;12.05;35.26
75409;BME280;63979;55.644;37.734;2023-05-09T20:23:48;101252.50;;;11.85;32.20
75409;BME280;63979;55.644;37.734;2023-05-09T20:28:50;101225.06;;;11.63;33.67
75409;BME280;63979;55.644;37.734;2023-05-09T20:33:51;101273.91;;;11.85;35.51
75409;BME280;63979;55.644;37.734;2023-05-09T20:38:54;101262.81;;;11.74;32.53
75409;BME280;63979;55.644;37.734;2023-05-09T20:43:57;101276.97;;;11.76;38.66
75409;BME280;63979;55.644;37.734;2023-05-09T20:49:03;101242.00;;;11.44;37.66
75409;BME280;63979;55.644;37.734;2023-05-09T20:54:05;101226.94;;;11.24;37.00
75409;BME280;63979;55.644;37.734;2023-05-09T20:59:06;101266.03;;;11.27;32.96
75409;BME280;63979;55.644;37.734;2023-05-09T21:04:07;101281.47;;;11.39;33.57
75409;BME280;63979;55.644;37.734;2023-05-09T21:09:08;101283.50;;;11.34;34.06
75409;BME280;63979;55.644;37.734;2023-05-09T21:14:09;101276.72;;;11.27;32.71
75409;BME280;63979;55.644;37.734;2023-05-09T21:19:10;101283.66;;;11.31;32.90
75409;BME280;63979;55.644;37.734;2023-05-09T21:24:11;101273.97;;;11.29;33.89
75409;BME280;63979;55.644;37.734;2023-05-09T21:29:12;101278.06;;;11.36;33.50
75409;BME280;63979;55.644;37.734;2023-05-09T21:34:14;101290.34;;;11.40;36.60
75409;BME280;63979;55.644;37.734;2023-05-09T21:39:14;101276.50;;;11.32;37.10
75409;BME280;63979;55.644;37.734;2023-05-09T21:44:15;101270.97;;;11.17;36.16
75409;BME280;63979;55.644;37.734;2023-05-09T21:49:16;101240.91;;;10.93;32.27
75409;BME280;63979;55.644;37.734;2023-05-09T21:54:18;101256.81;;;11.15;33.95
75409;BME280;63979;55.644;37.734;2023-05-09T21:59:20;101262.00;;;11.18;32.85
75409;BME280;63979;55.644;37.734;2023-05-09T22:04:22;101258.53;;;11.16;32.72
75409;BME280;63979;55.644;37.734;2023-05-09T22:09:22;101260.56;;;11.11;33.82
75409;BME280;63979;55.644;37.734;2023-05-09T22:14:24;101263.25;;;11.11;35.83
75409;BME280;63979;55.644;37.734;2023-05-09T22:19:25;101246.09;;;10.97;35.16
75409;BME280;63979;55.644;37.734;2023-05-09T22:24:26;101254.63;;;11.05;35.64
75409;BME280;63979;55.644;37.734;2023-05-09T22:29:27;101251.94;;;11.05;33.55
75409;BME280;63979;55.644;37.734;2023-05-09T22:34:28;101254.63;;;11.05;32.58
75409;BME280;63979;55.644;37.734;2023-05-09T22:39:30;101217.88;;;10.72;31.84
75409;BME280;63979;55.644;37.734;2023-05-09T22:44:31;101244.53;;;10.92;31.92
75409;BME280;63979;55.644;37.734;2023-05-09T22:49:32;101245.16;;;10.98;33.61
75409;BME280;63979;55.644;37.734;2023-05-09T22:54:33;101238.97;;;10.97;32.92
75409;BME280;63979;55.644;37.734;2023-05-09T22:59:34;101246.75;;;11.02;34.71
75409;BME280;63979;55.644;37.734;2023-05-09T23:04:36;101251.16;;;11.03;34.10
75409;BME280;63979;55.644;37.734;2023-05-09T23:09:37;101253.97;;;11.00;34.81
75409;BME280;63979;55.644;37.734;2023-05-09T23:14:39;101243.72;;;10.90;32.44
75409;BME280;63979;55.644;37.734;2023-05-09T23:19:40;101251.38;;;10.98;36.13
75409;BME280;63979;55.644;37.734;2023-05-09T23:24:41;101231.97;;;10.94;36.57
75409;BME280;63979;55.644;37.734;2023-05-09T23:29:42;101240.63;;;11.00;34.55
75409;BME280;63979;55.644;37.734;2023-05-09T23:34:43;101229.72;;;10.85;32.72
75409;BME280;63979;55.644;37.734;2023-05-09T23:39:44;101235.56;;;10.93;37.02
75409;BME280;63979;55.644;37.734;2023-05-09T23:44:45;101247.19;;;10.92;32.71
75409;BME280;63979;55.644;37.734;2023-05-09T23:49:47;101235.06;;;10.85;32.88
75409;BME280;63979;55.644;37.734;2023-05-09T23:54:48;101222.00;;;10.79;33.57
75409;BME280;63979;55.644;37.734;2023-05-09T23:59:48;101225.69;;;10.77;34.09
